createdAt,value
2018-09-17T00:00:52.372Z,99.90
2018-09-17T00:03:20.631Z,99.90
2018-09-17T00:05:48.908Z,99.90
2018-09-17T00:08:17.185Z,99.90
2018-09-17T00:10:45.450Z,99.90
2018-09-17T00:13:13.695Z,99.90
2018-09-17T00:15:41.944Z,99.90
2018-09-17T00:18:10.204Z,99.90
2018-09-17T00:20:38.460Z,99.90
2018-09-17T00:23:06.760Z,99.90
2018-09-17T00:25:35.027Z,99.90
2018-09-17T00:28:03.400Z,99.90
2018-09-17T00:30:31.664Z,99.90
2018-09-17T00:32:59.924Z,99.90
2018-09-17T00:35:28.208Z,99.90
2018-09-17T00:37:56.462Z,99.90
2018-09-17T00:40:24.744Z,99.90
2018-09-17T00:42:53.001Z,99.90
2018-09-17T00:45:21.254Z,99.90
2018-09-17T00:47:49.509Z,99.90
2018-09-17T00:50:17.762Z,99.90
2018-09-17T00:52:46.020Z,99.90
2018-09-17T00:55:16.062Z,99.90
2018-09-17T00:57:44.408Z,99.90
2018-09-17T01:00:12.627Z,99.90
2018-09-17T01:02:40.904Z,99.90
2018-09-17T01:05:09.188Z,99.90
2018-09-17T01:07:37.468Z,99.90
2018-09-17T01:10:05.764Z,99.90
2018-09-17T01:12:34.029Z,99.90
2018-09-17T01:15:02.314Z,99.90
2018-09-17T01:17:30.580Z,99.90
2018-09-17T01:19:58.890Z,99.90
2018-09-17T01:22:27.148Z,99.90
2018-09-17T01:24:55.412Z,99.90
2018-09-17T01:27:23.692Z,99.90
2018-09-17T01:29:51.945Z,99.90
2018-09-17T01:32:20.284Z,99.90
2018-09-17T01:34:48.540Z,99.90
2018-09-17T01:37:16.809Z,99.90
2018-09-17T01:39:45.075Z,99.90
2018-09-17T01:42:13.352Z,99.90
2018-09-17T01:44:41.652Z,99.90
2018-09-17T01:47:09.928Z,99.90
2018-09-17T01:49:38.192Z,99.90
2018-09-17T01:52:06.548Z,99.90
2018-09-17T01:54:34.797Z,99.90
2018-09-17T01:57:03.060Z,99.90
2018-09-17T01:59:31.388Z,99.90
2018-09-17T02:01:59.652Z,99.90
2018-09-17T02:04:27.893Z,99.90
2018-09-17T02:06:56.156Z,99.90
2018-09-17T02:09:24.440Z,99.90
2018-09-17T02:11:52.688Z,99.90
2018-09-17T02:14:20.953Z,99.90
2018-09-17T02:16:49.208Z,99.90
2018-09-17T02:19:17.486Z,99.90
2018-09-17T02:21:45.784Z,99.90
2018-09-17T02:24:14.098Z,99.90
2018-09-17T02:26:42.364Z,99.90
2018-09-17T02:29:10.631Z,99.90
2018-09-17T02:31:38.909Z,99.90
2018-09-17T02:34:07.159Z,99.90
2018-09-17T02:36:35.431Z,99.90
2018-09-17T02:39:05.042Z,99.90
2018-09-17T02:41:33.343Z,99.90
2018-09-17T02:44:01.715Z,99.90
2018-09-17T02:46:29.958Z,99.90
2018-09-17T02:48:58.215Z,99.90
2018-09-17T02:51:26.479Z,99.90
2018-09-17T02:53:54.747Z,99.90
2018-09-17T02:56:23.011Z,99.90
2018-09-17T02:58:51.333Z,99.90
2018-09-17T03:01:19.615Z,99.90
2018-09-17T03:03:47.874Z,99.90
2018-09-17T03:06:16.122Z,99.90
2018-09-17T03:08:44.406Z,99.90
2018-09-17T03:11:12.672Z,99.90
2018-09-17T03:13:40.928Z,99.90
2018-09-17T03:16:09.193Z,99.90
2018-09-17T03:18:56.994Z,99.90
2018-09-17T03:21:25.259Z,99.90
2018-09-17T03:23:53.890Z,99.90
2018-09-17T03:26:22.480Z,99.90
2018-09-17T03:28:50.763Z,99.90
2018-09-17T03:31:19.076Z,99.90
2018-09-17T03:33:47.344Z,99.90
2018-09-17T03:36:15.613Z,99.90
2018-09-17T03:38:50.337Z,99.90
2018-09-17T03:41:19.623Z,99.90
2018-09-17T03:43:49.409Z,99.90
2018-09-17T03:46:17.792Z,99.90
2018-09-17T03:48:46.041Z,99.90
2018-09-17T03:51:14.708Z,99.90
2018-09-17T03:53:43.305Z,99.90
2018-09-17T03:56:11.607Z,99.90
2018-09-17T03:58:39.877Z,99.90
2018-09-17T04:01:08.161Z,99.90
2018-09-17T04:03:36.448Z,99.90
2018-09-17T04:06:04.715Z,99.90
2018-09-17T04:08:33.587Z,99.90
2018-09-17T04:11:01.921Z,99.90
2018-09-17T04:13:30.206Z,99.90
2018-09-17T04:15:58.488Z,99.90
2018-09-17T04:18:26.777Z,99.90
2018-09-17T04:20:55.101Z,99.90
2018-09-17T04:23:38.333Z,99.90
2018-09-17T04:26:09.990Z,99.90
2018-09-17T04:28:38.859Z,99.90
2018-09-17T04:31:07.173Z,99.90
2018-09-17T04:33:38.879Z,99.90
2018-09-17T04:36:07.548Z,99.90
2018-09-17T04:38:35.828Z,99.90
2018-09-17T04:41:04.335Z,99.90
2018-09-17T04:43:33.395Z,99.90
2018-09-17T04:46:01.753Z,99.90
2018-09-17T04:48:30.360Z,99.90
2018-09-17T04:50:58.745Z,99.90
2018-09-17T04:53:27.110Z,99.90
2018-09-17T04:55:55.437Z,99.90
2018-09-17T04:58:23.775Z,99.90
2018-09-17T05:00:52.031Z,99.90
2018-09-17T05:03:20.323Z,99.90
2018-09-17T05:05:48.604Z,99.90
2018-09-17T05:08:16.909Z,99.90
2018-09-17T05:10:45.179Z,99.90
2018-09-17T05:13:13.861Z,99.90
2018-09-17T05:15:42.051Z,99.90
2018-09-17T05:18:10.346Z,99.90
2018-09-17T05:20:38.715Z,99.90
2018-09-17T05:23:06.929Z,99.90
2018-09-17T05:25:35.227Z,99.90
2018-09-17T05:28:03.661Z,99.90
2018-09-17T05:30:31.943Z,99.90
2018-09-17T05:33:00.217Z,99.90
2018-09-17T05:35:28.492Z,99.90
2018-09-17T05:37:56.824Z,99.90
2018-09-17T05:40:25.116Z,99.90
2018-09-17T05:42:53.406Z,99.90
2018-09-17T05:45:21.703Z,99.90
2018-09-17T05:47:49.980Z,99.90
2018-09-17T05:50:18.340Z,99.90
2018-09-17T05:52:46.600Z,99.90
2018-09-17T05:55:14.894Z,99.90
2018-09-17T05:57:43.165Z,99.90
2018-09-17T06:00:11.480Z,99.90
2018-09-17T06:02:39.740Z,99.90
2018-09-17T06:05:08.025Z,99.90
2018-09-17T06:07:36.328Z,99.90
2018-09-17T06:10:08.886Z,99.90
2018-09-17T06:12:37.203Z,99.90
2018-09-17T06:15:05.640Z,99.90
2018-09-17T06:17:33.945Z,99.90
2018-09-17T06:20:02.210Z,99.90
2018-09-17T06:22:30.492Z,99.90
2018-09-17T06:24:58.785Z,99.90
2018-09-17T06:27:27.052Z,99.90
2018-09-17T06:29:55.340Z,99.90
2018-09-17T06:32:23.639Z,99.90
2018-09-17T06:34:51.919Z,99.90
2018-09-17T06:37:20.214Z,99.90
2018-09-17T06:39:48.508Z,99.90
2018-09-17T06:42:16.796Z,99.90
2018-09-17T06:44:45.150Z,99.90
2018-09-17T06:47:13.637Z,99.90
2018-09-17T06:49:41.936Z,99.90
2018-09-17T06:52:10.269Z,99.90
2018-09-17T06:54:38.565Z,99.90
2018-09-17T06:57:06.851Z,99.90
2018-09-17T06:59:35.132Z,99.90
2018-09-17T07:02:03.436Z,99.90
2018-09-17T07:04:31.721Z,99.90
2018-09-17T07:07:00.008Z,99.90
2018-09-17T07:09:28.345Z,99.90
2018-09-17T07:11:56.651Z,99.90
2018-09-17T07:14:24.930Z,99.90
2018-09-17T07:16:53.188Z,99.90
2018-09-17T07:19:21.475Z,99.90
2018-09-17T07:21:50.304Z,99.90
2018-09-17T07:24:20.040Z,99.90
2018-09-17T07:26:48.336Z,99.90
2018-09-17T07:29:16.592Z,99.90
2018-09-17T07:31:44.851Z,99.90
2018-09-17T07:34:13.150Z,99.90
2018-09-17T07:36:41.445Z,99.90
2018-09-17T07:39:11.083Z,99.90
2018-09-17T07:41:39.350Z,99.90
2018-09-17T07:44:07.644Z,99.90
2018-09-17T07:46:35.915Z,99.90
2018-09-17T07:49:04.271Z,99.90
2018-09-17T07:51:32.650Z,99.90
2018-09-17T07:54:01.042Z,99.90
2018-09-17T07:56:29.777Z,99.90
2018-09-17T07:58:58.162Z,99.90
2018-09-17T08:01:26.391Z,99.90
2018-09-17T08:03:54.669Z,99.90
2018-09-17T08:06:22.938Z,99.90
2018-09-17T08:08:51.332Z,99.90
2018-09-17T08:11:19.703Z,99.90
2018-09-17T08:13:47.976Z,99.90
2018-09-17T08:16:16.260Z,99.90
2018-09-17T08:18:44.532Z,99.90
2018-09-17T08:21:12.825Z,99.90
2018-09-17T08:23:41.184Z,99.90
2018-09-17T08:26:09.788Z,99.90
2018-09-17T08:28:38.064Z,99.90
2018-09-17T08:31:06.424Z,99.90
2018-09-17T08:33:34.707Z,99.90
2018-09-17T08:36:02.964Z,99.90
2018-09-17T08:38:31.224Z,99.90
2018-09-17T08:40:59.492Z,99.90
2018-09-17T08:43:27.766Z,99.90
2018-09-17T08:45:56.021Z,99.90
2018-09-17T08:48:24.296Z,99.90
2018-09-17T08:50:52.567Z,99.90
2018-09-17T08:53:20.857Z,99.90
2018-09-17T08:55:54.392Z,99.90
2018-09-17T08:58:25.642Z,99.90
2018-09-17T09:00:55.796Z,99.90
2018-09-17T09:03:26.955Z,99.90
2018-09-17T09:06:00.644Z,99.90
2018-09-17T09:08:28.936Z,99.90
2018-09-17T09:11:02.580Z,99.90
2018-09-17T09:13:38.995Z,99.90
2018-09-17T09:16:08.702Z,99.90
2018-09-17T09:18:36.982Z,99.90
2018-09-17T09:21:05.338Z,99.90
2018-09-17T09:23:33.610Z,99.90
2018-09-17T09:26:02.762Z,99.90
2018-09-17T09:28:31.036Z,99.90
2018-09-17T09:30:59.308Z,99.90
2018-09-17T09:33:27.676Z,99.90
2018-09-17T09:35:55.968Z,99.90
2018-09-17T09:38:24.236Z,99.90
2018-09-17T09:40:52.642Z,99.90
2018-09-17T09:43:21.000Z,99.90
2018-09-17T09:45:49.253Z,99.90
2018-09-17T09:48:17.535Z,99.90
2018-09-17T09:50:45.850Z,99.90
2018-09-17T09:53:14.146Z,99.90
2018-09-17T09:55:42.378Z,99.90
2018-09-17T09:58:10.652Z,99.90
2018-09-17T10:00:44.308Z,99.90
2018-09-17T10:03:17.425Z,99.90
2018-09-17T10:05:46.037Z,99.90
2018-09-17T10:08:14.343Z,99.90
2018-09-17T10:10:48.154Z,99.90
2018-09-17T10:13:21.874Z,99.90
2018-09-17T10:15:54.188Z,99.90
2018-09-17T10:18:27.712Z,99.90
2018-09-17T10:20:55.997Z,99.90
2018-09-17T10:23:24.368Z,99.90
2018-09-17T10:25:52.666Z,99.90
2018-09-17T10:28:21.070Z,99.90
2018-09-17T10:30:49.367Z,99.90
2018-09-17T10:33:18.384Z,99.90
2018-09-17T10:35:46.680Z,99.90
2018-09-17T10:38:15.001Z,99.20
2018-09-17T10:40:43.514Z,98.90
2018-09-17T10:43:11.902Z,98.70
2018-09-17T10:45:40.904Z,98.50
2018-09-17T10:48:09.337Z,97.60
2018-09-17T10:50:37.821Z,96.80
2018-09-17T10:53:06.137Z,96.30
2018-09-17T10:55:34.480Z,95.80
2018-09-17T10:58:02.749Z,95.10
2018-09-17T11:00:31.179Z,94.60
2018-09-17T11:02:59.441Z,94.10
2018-09-17T11:05:27.776Z,92.90
2018-09-17T11:07:57.033Z,92.90
2018-09-17T11:10:25.534Z,92.90
2018-09-17T11:12:53.886Z,92.20
2018-09-17T11:15:26.555Z,91.90
2018-09-17T11:17:54.965Z,91.50
2018-09-17T11:20:23.265Z,90.70
2018-09-17T11:22:51.839Z,89.90
2018-09-17T11:25:20.373Z,89.10
2018-09-17T11:27:48.856Z,88.30
2018-09-17T11:30:17.252Z,86.80
2018-09-17T11:32:45.653Z,85.70
2018-09-17T11:35:14.123Z,85.50
2018-09-17T11:37:42.436Z,85.20
2018-09-17T11:40:11.003Z,83.50
2018-09-17T11:42:40.100Z,83.20
2018-09-17T11:45:08.496Z,82.20
2018-09-17T11:47:37.046Z,82.70
2018-09-17T11:50:05.457Z,82.30
2018-09-17T11:52:34.083Z,81.40
2018-09-17T11:55:02.589Z,80.70
2018-09-17T11:57:31.793Z,80.40
2018-09-17T12:00:00.197Z,80.10
2018-09-17T12:02:32.497Z,79.00
2018-09-17T12:05:09.425Z,76.60
2018-09-17T12:07:40.738Z,75.00
2018-09-17T12:10:09.853Z,75.20
2018-09-17T12:12:38.727Z,74.50
2018-09-17T12:15:07.503Z,74.50
2018-09-17T12:17:36.133Z,72.70
2018-09-17T12:20:04.475Z,70.20
2018-09-17T12:22:33.523Z,70.60
2018-09-17T12:25:01.799Z,71.20
2018-09-17T12:27:30.083Z,70.90
2018-09-17T12:29:58.364Z,71.00
2018-09-17T12:32:26.611Z,70.10
2018-09-17T12:34:54.904Z,69.40
2018-09-17T12:37:23.181Z,68.60
2018-09-17T12:39:51.480Z,68.20
2018-09-17T12:42:19.764Z,68.00
2018-09-17T12:44:48.064Z,65.80
2018-09-17T12:47:16.345Z,64.00
2018-09-17T12:49:44.618Z,61.10
2018-09-17T12:52:12.915Z,60.90
2018-09-17T12:54:41.240Z,57.70
2018-09-17T12:57:09.574Z,58.10
2018-09-17T12:59:37.823Z,58.30
2018-09-17T13:02:06.140Z,57.50
2018-09-17T13:04:34.420Z,58.40
2018-09-17T13:07:03.594Z,58.80
2018-09-17T13:09:31.877Z,59.00
2018-09-17T13:12:00.270Z,58.90
2018-09-17T13:14:28.560Z,58.20
2018-09-17T13:16:56.820Z,58.10
2018-09-17T13:19:25.110Z,58.80
2018-09-17T13:21:53.364Z,59.20
2018-09-17T13:24:21.657Z,59.70
2018-09-17T13:26:49.937Z,60.00
2018-09-17T13:29:18.244Z,60.00
2018-09-17T13:31:46.590Z,59.90
2018-09-17T13:34:14.800Z,59.60
2018-09-17T13:36:43.168Z,57.70
2018-09-17T13:39:11.427Z,57.80
2018-09-17T13:41:39.783Z,58.10
2018-09-17T13:44:08.133Z,56.60
2018-09-17T13:46:36.423Z,56.70
2018-09-17T13:49:05.048Z,57.10
2018-09-17T13:51:33.323Z,57.20
2018-09-17T13:54:01.636Z,57.00
2018-09-17T13:56:29.912Z,58.00
2018-09-17T13:58:58.176Z,57.10
2018-09-17T14:01:26.544Z,57.30
2018-09-17T14:03:55.643Z,57.40
2018-09-17T14:06:23.927Z,57.10
2018-09-17T14:08:52.225Z,56.40
2018-09-17T14:11:20.513Z,54.60
2018-09-17T14:13:48.837Z,54.40
2018-09-17T14:16:21.361Z,53.50
2018-09-17T14:18:49.716Z,54.10
2018-09-17T14:21:18.724Z,55.00
2018-09-17T14:23:47.008Z,54.80
2018-09-17T14:26:15.411Z,54.90
2018-09-17T14:28:43.652Z,55.20
2018-09-17T14:31:11.975Z,53.50
2018-09-17T14:33:41.000Z,53.50
2018-09-17T14:36:09.302Z,54.10
2018-09-17T14:38:38.335Z,53.80
2018-09-17T14:41:06.623Z,52.80
2018-09-17T14:43:35.028Z,52.40
2018-09-17T14:46:03.330Z,51.80
2018-09-17T14:48:31.585Z,51.60
2018-09-17T14:51:00.407Z,52.20
2018-09-17T14:53:28.769Z,52.10
2018-09-17T14:55:56.955Z,52.10
2018-09-17T14:58:25.369Z,52.20
2018-09-17T15:00:53.603Z,51.90
2018-09-17T15:03:21.896Z,51.80
2018-09-17T15:05:50.212Z,52.40
2018-09-17T15:08:18.559Z,52.10
2018-09-17T15:10:46.776Z,52.10
2018-09-17T15:13:15.047Z,52.60
2018-09-17T15:15:48.847Z,52.50
2018-09-17T15:18:17.117Z,52.60
2018-09-17T15:20:45.416Z,53.00
2018-09-17T15:23:13.902Z,53.70
2018-09-17T15:25:42.200Z,53.70
2018-09-17T15:28:10.515Z,53.80
2018-09-17T15:30:38.765Z,54.30
2018-09-17T15:33:07.397Z,53.70
2018-09-17T15:35:35.678Z,53.30
2018-09-17T15:38:03.983Z,53.80
2018-09-17T15:40:32.286Z,53.70
2018-09-17T15:43:00.832Z,54.10
2018-09-17T15:45:29.090Z,54.10
2018-09-17T15:47:57.378Z,54.30
2018-09-17T15:50:25.744Z,53.80
2018-09-17T15:52:54.166Z,53.70
2018-09-17T15:55:23.562Z,53.70
2018-09-17T15:57:51.862Z,53.80
2018-09-17T16:00:20.148Z,53.90
2018-09-17T16:02:48.429Z,55.00
2018-09-17T16:05:16.764Z,55.00
2018-09-17T16:07:45.125Z,54.50
2018-09-17T16:10:13.451Z,55.20
2018-09-17T16:12:41.731Z,54.20
2018-09-17T16:15:10.026Z,54.10
2018-09-17T16:17:38.484Z,54.50
2018-09-17T16:20:06.835Z,55.20
2018-09-17T16:22:35.191Z,55.30
2018-09-17T16:25:03.529Z,55.80
2018-09-17T16:27:31.881Z,55.50
2018-09-17T16:30:00.230Z,55.60
2018-09-17T16:32:28.571Z,55.60
2018-09-17T16:34:56.915Z,55.80
2018-09-17T16:37:25.211Z,56.10
2018-09-17T16:39:53.501Z,56.70
2018-09-17T16:42:21.803Z,56.80
2018-09-17T16:44:50.230Z,57.10
2018-09-17T16:47:18.538Z,56.80
2018-09-17T16:49:46.808Z,56.50
2018-09-17T16:52:15.131Z,57.40
2018-09-17T16:54:43.457Z,57.90
2018-09-17T16:57:11.873Z,58.30
2018-09-17T16:59:40.892Z,58.40
2018-09-17T17:02:09.223Z,59.30
2018-09-17T17:04:38.391Z,60.40
2018-09-17T17:07:06.716Z,61.90
2018-09-17T17:09:35.025Z,61.70
2018-09-17T17:12:03.867Z,61.30
2018-09-17T17:14:32.181Z,61.20
2018-09-17T17:17:00.549Z,61.80
2018-09-17T17:19:28.915Z,62.20
2018-09-17T17:21:57.338Z,62.80
2018-09-17T17:24:25.681Z,63.30
2018-09-17T17:26:53.967Z,64.20
2018-09-17T17:29:22.322Z,64.70
2018-09-17T17:31:51.149Z,65.20
2018-09-17T17:34:19.560Z,65.70
2018-09-17T17:36:47.953Z,66.20
2018-09-17T17:39:16.394Z,66.60
2018-09-17T17:41:44.590Z,67.20
2018-09-17T17:44:13.219Z,67.80
2018-09-17T17:46:41.547Z,68.30
2018-09-17T17:49:10.040Z,68.50
2018-09-17T17:51:38.358Z,68.80
2018-09-17T17:54:06.767Z,69.20
2018-09-17T17:56:35.185Z,69.70
2018-09-17T17:59:03.507Z,70.20
2018-09-17T18:01:31.822Z,70.40
2018-09-17T18:04:00.169Z,71.00
2018-09-17T18:06:28.572Z,70.50
2018-09-17T18:08:56.887Z,69.70
2018-09-17T18:11:25.211Z,69.70
2018-09-17T18:13:53.569Z,69.60
2018-09-17T18:16:26.689Z,69.90
2018-09-17T18:18:55.068Z,69.60
2018-09-17T18:21:23.439Z,69.60
2018-09-17T18:23:51.755Z,69.10
2018-09-17T18:26:20.119Z,68.90
2018-09-17T18:28:48.511Z,69.20
2018-09-17T18:31:16.923Z,69.40
2018-09-17T18:33:45.280Z,70.00
2018-09-17T18:36:14.115Z,70.50
2018-09-17T18:38:42.514Z,71.10
2018-09-17T18:41:10.892Z,71.40
2018-09-17T18:43:39.344Z,71.90
2018-09-17T18:46:07.784Z,72.80
2018-09-17T18:48:36.279Z,73.30
2018-09-17T18:51:04.651Z,73.90
2018-09-17T18:53:33.311Z,74.60
2018-09-17T18:56:01.635Z,75.00
2018-09-17T18:58:29.979Z,75.30
2018-09-17T19:00:59.011Z,75.80
2018-09-17T19:03:27.401Z,76.20
2018-09-17T19:05:56.953Z,77.00
2018-09-17T19:08:26.252Z,77.40
2018-09-17T19:10:54.649Z,77.80
2018-09-17T19:13:23.094Z,78.40
2018-09-17T19:15:56.961Z,79.10
2018-09-17T19:18:25.444Z,79.70
2018-09-17T19:20:54.154Z,80.00
2018-09-17T19:23:27.448Z,80.30
2018-09-17T19:25:56.724Z,80.40
2018-09-17T19:28:30.401Z,80.90
2018-09-17T19:30:58.830Z,81.20
2018-09-17T19:33:27.753Z,82.80
2018-09-17T19:35:56.300Z,83.50
2018-09-17T19:38:30.068Z,84.30
2018-09-17T19:40:58.799Z,84.10
2018-09-17T19:43:27.208Z,84.90
2018-09-17T19:46:00.864Z,85.50
2018-09-17T19:48:29.593Z,86.20
2018-09-17T19:51:03.458Z,87.00
2018-09-17T19:53:31.873Z,87.30
2018-09-17T19:56:01.427Z,87.80
2018-09-17T19:58:35.377Z,88.50
2018-09-17T20:01:03.822Z,89.10
2018-09-17T20:03:33.213Z,89.40
2018-09-17T20:06:06.868Z,89.90
2018-09-17T20:08:36.169Z,90.20
2018-09-17T20:11:04.559Z,90.60
2018-09-17T20:13:32.991Z,91.10
2018-09-17T20:16:02.077Z,91.60
2018-09-17T20:18:31.235Z,92.10
2018-09-17T20:20:59.626Z,92.40
2018-09-17T20:23:28.062Z,92.60
2018-09-17T20:25:57.523Z,93.00
2018-09-17T20:28:26.096Z,93.40
2018-09-17T20:30:54.935Z,93.60
2018-09-17T20:33:26.067Z,93.80
2018-09-17T20:35:54.443Z,94.10
2018-09-17T20:38:22.791Z,94.40
2018-09-17T20:40:51.113Z,94.80
2018-09-17T20:43:19.424Z,95.20
2018-09-17T20:45:48.293Z,95.60
2018-09-17T20:48:16.580Z,95.90
2018-09-17T20:50:44.906Z,96.10
2018-09-17T20:53:13.235Z,96.40
2018-09-17T20:55:41.591Z,96.60
2018-09-17T20:58:09.849Z,96.80
2018-09-17T21:00:38.153Z,97.50
2018-09-17T21:03:06.439Z,97.70
2018-09-17T21:05:35.102Z,98.20
2018-09-17T21:08:03.410Z,98.50
2018-09-17T21:10:31.679Z,98.90
2018-09-17T21:13:00.005Z,99.20
2018-09-17T21:15:28.249Z,99.60
2018-09-17T21:17:56.616Z,99.90
2018-09-17T21:20:24.887Z,99.90
2018-09-17T21:22:54.101Z,99.90
2018-09-17T21:25:22.504Z,99.90
2018-09-17T21:27:50.752Z,99.90
2018-09-17T21:30:19.034Z,99.90
2018-09-17T21:32:47.296Z,99.90
2018-09-17T21:35:15.651Z,99.90
2018-09-17T21:37:44.464Z,99.90
2018-09-17T21:40:14.055Z,99.90
2018-09-17T21:42:42.389Z,99.90
2018-09-17T21:45:11.991Z,99.90
2018-09-17T21:47:40.983Z,99.90
2018-09-17T21:50:09.373Z,99.90
2018-09-17T21:52:38.226Z,99.90
2018-09-17T21:55:06.599Z,99.90
2018-09-17T21:57:34.897Z,99.90
2018-09-17T22:00:03.225Z,99.90
2018-09-17T22:02:31.519Z,99.90
2018-09-17T22:04:59.912Z,99.90
2018-09-17T22:07:28.216Z,99.90
2018-09-17T22:09:56.488Z,99.90
2018-09-17T22:12:24.788Z,99.90
2018-09-17T22:14:53.121Z,99.90
2018-09-17T22:17:21.423Z,99.90
2018-09-17T22:19:49.715Z,99.90
2018-09-17T22:22:17.975Z,99.90
2018-09-17T22:24:46.339Z,99.90
2018-09-17T22:27:14.614Z,99.90
2018-09-17T22:29:42.894Z,99.90
2018-09-17T22:32:11.209Z,99.90
2018-09-17T22:34:39.500Z,99.90
2018-09-17T22:37:07.740Z,99.90
2018-09-17T22:39:36.096Z,99.90
2018-09-17T22:42:04.357Z,99.90
2018-09-17T22:44:32.635Z,99.90
2018-09-17T22:47:00.924Z,99.90
2018-09-17T22:49:29.176Z,99.90
2018-09-17T22:51:57.467Z,99.90
2018-09-17T22:54:25.738Z,99.90
2018-09-17T22:56:54.024Z,99.90
2018-09-17T22:59:22.295Z,99.90
2018-09-17T23:01:50.675Z,99.90
2018-09-17T23:04:18.928Z,99.90
2018-09-17T23:06:47.214Z,99.90
2018-09-17T23:09:15.501Z,99.90
2018-09-17T23:11:43.789Z,99.90
2018-09-17T23:14:12.115Z,99.90
2018-09-17T23:16:40.397Z,99.90
2018-09-17T23:19:08.655Z,99.90
2018-09-17T23:21:36.912Z,99.90
2018-09-17T23:24:05.169Z,99.90
2018-09-17T23:26:33.465Z,99.90
2018-09-17T23:29:01.746Z,99.90
2018-09-17T23:31:30.019Z,99.90
2018-09-17T23:33:58.268Z,99.90
2018-09-17T23:36:26.518Z,99.90
2018-09-17T23:38:54.787Z,99.90
2018-09-17T23:41:23.057Z,99.90
2018-09-17T23:43:51.340Z,99.90
2018-09-17T23:46:19.631Z,99.90
2018-09-17T23:48:47.922Z,99.90
2018-09-17T23:51:16.187Z,99.90
2018-09-17T23:53:44.493Z,99.90
2018-09-17T23:56:12.776Z,99.90
2018-09-17T23:58:41.315Z,99.90
